La Barge, Wyoming
Current Conditions -  °F | °C
As of 8:53 PM on Saturday 24 Jan 2015 (Local Time) from KBPI Reporting Station
Clear Clear  
Wind Chill: 22°   Ceiling: Unl
Heat Index: 31°   Visibility: 10mi
Dew Point: 24°   Wind: 10mph
Humidity: 76%   Direction: 330°NNW
Pressure: 30.32"   Gusts: NA
Location:  42.26°N, 110.19°W
Report Text: KBPI 250353Z AUTO 33009KT 10SM CLR M01/M04 A3032 RMK AO2 SLP300 T10061044
Loading
Personal Weather Stations






























Interactive Weather Map New forecast layout! Learn more

10-Day Weather Forecast

Advertisements
Track Severe Weather on mobile